createdAt,value
2023-08-24T00:02:11.966Z,29.71
2023-08-24T00:04:39.847Z,29.71
2023-08-24T00:07:07.424Z,29.71
2023-08-24T00:09:34.878Z,29.70
2023-08-24T00:12:03.745Z,29.68
2023-08-24T00:14:31.225Z,29.70
2023-08-24T00:16:58.728Z,29.68
2023-08-24T00:19:26.572Z,29.67
2023-08-24T00:21:54.222Z,29.66
2023-08-24T00:24:21.701Z,29.64
2023-08-24T00:27:08.174Z,29.64
2023-08-24T00:29:35.620Z,29.66
2023-08-24T00:32:03.451Z,29.62
2023-08-24T00:34:30.937Z,29.61
2023-08-24T00:36:58.410Z,29.61
2023-08-24T00:39:26.704Z,29.61
2023-08-24T00:41:55.721Z,29.61
2023-08-24T00:44:23.236Z,29.61
2023-08-24T00:46:51.069Z,29.59
2023-08-24T00:49:18.552Z,29.59
2023-08-24T00:51:48.182Z,29.59
2023-08-24T00:54:16.475Z,29.57
2023-08-24T00:56:44.030Z,29.57
2023-08-24T00:59:11.529Z,29.56
2023-08-24T01:01:40.618Z,29.56
2023-08-24T01:04:08.702Z,29.55
2023-08-24T01:06:36.169Z,29.56
2023-08-24T01:09:03.994Z,29.55
2023-08-24T01:11:56.103Z,29.55
2023-08-24T01:14:51.974Z,29.55
2023-08-24T01:17:22.026Z,29.55
2023-08-24T01:19:49.817Z,29.49
2023-08-24T01:22:39.183Z,29.49
2023-08-24T01:25:16.937Z,29.52
2023-08-24T01:27:44.539Z,29.49
2023-08-24T01:30:12.539Z,29.47
2023-08-24T01:32:40.167Z,29.45
2023-08-24T01:35:09.549Z,29.45
2023-08-24T01:37:39.262Z,29.44
2023-08-24T01:40:11.185Z,29.45
2023-08-24T01:42:56.179Z,29.43
2023-08-24T01:45:24.272Z,29.44
2023-08-24T01:47:52.221Z,29.43
2023-08-24T01:50:20.082Z,29.42
2023-08-24T01:52:48.301Z,29.42
2023-08-24T01:55:19.897Z,29.41
2023-08-24T01:57:48.016Z,29.40
2023-08-24T02:00:16.438Z,29.39
2023-08-24T02:02:47.734Z,29.39
2023-08-24T02:05:15.353Z,29.39
2023-08-24T02:07:42.818Z,29.37
2023-08-24T02:10:10.557Z,29.37
2023-08-24T02:12:38.235Z,29.37
2023-08-24T02:15:06.256Z,29.36
2023-08-24T02:17:34.914Z,29.34
2023-08-24T02:20:03.020Z,29.35
2023-08-24T02:22:31.543Z,29.34
2023-08-24T02:24:59.344Z,29.34
2023-08-24T02:27:26.827Z,29.37
2023-08-24T02:29:54.333Z,29.35
2023-08-24T02:32:22.086Z,29.34
2023-08-24T02:34:49.525Z,29.34
2023-08-24T02:37:17.010Z,29.34
2023-08-24T02:39:44.895Z,29.32
2023-08-24T02:42:12.369Z,29.32
2023-08-24T02:44:39.864Z,29.31
2023-08-24T02:47:07.632Z,29.31
2023-08-24T02:49:35.076Z,29.31
2023-08-24T02:52:04.724Z,29.31
2023-08-24T02:54:32.437Z,29.31
2023-08-24T02:57:00.179Z,29.30
2023-08-24T02:59:27.680Z,29.31
2023-08-24T03:01:55.500Z,29.30
2023-08-24T03:04:23.172Z,29.30
2023-08-24T03:06:53.393Z,29.28
2023-08-24T03:09:21.192Z,29.30
2023-08-24T03:11:48.669Z,29.27
2023-08-24T03:14:16.129Z,29.28
2023-08-24T03:16:44.288Z,29.29
2023-08-24T03:19:13.387Z,29.29
2023-08-24T03:21:41.010Z,29.26
2023-08-24T03:24:08.762Z,29.28
2023-08-24T03:26:36.319Z,29.26
2023-08-24T03:29:03.751Z,29.26
2023-08-24T03:31:31.671Z,29.25
2023-08-24T03:33:59.612Z,29.25
2023-08-24T03:36:28.265Z,29.25
2023-08-24T03:38:56.081Z,29.23
2023-08-24T03:41:23.827Z,29.23
2023-08-24T03:43:51.300Z,29.23
2023-08-24T03:46:19.933Z,29.22
2023-08-24T03:48:48.303Z,29.23
2023-08-24T03:51:15.776Z,29.21
2023-08-24T03:53:43.713Z,29.20
2023-08-24T03:56:12.685Z,29.20
2023-08-24T03:58:40.147Z,29.20
2023-08-24T04:01:11.935Z,29.21
2023-08-24T04:03:39.863Z,29.19
2023-08-24T04:06:07.343Z,29.20
2023-08-24T04:08:35.552Z,29.20
2023-08-24T04:11:03.357Z,29.19
2023-08-24T04:13:32.275Z,29.21
2023-08-24T04:15:59.795Z,29.20
2023-08-24T04:18:27.594Z,29.21
2023-08-24T04:20:55.078Z,29.21
2023-08-24T04:23:26.800Z,29.21
2023-08-24T04:25:54.907Z,29.20
2023-08-24T04:28:22.347Z,29.21
2023-08-24T04:30:51.408Z,29.20
2023-08-24T04:33:19.507Z,29.22
2023-08-24T04:35:50.307Z,29.23
2023-08-24T04:38:17.873Z,29.22
2023-08-24T04:40:52.904Z,29.22
2023-08-24T04:43:22.249Z,29.23
2023-08-24T04:45:51.180Z,29.24
2023-08-24T04:48:18.722Z,29.26
2023-08-24T04:50:47.588Z,29.27
2023-08-24T04:53:16.737Z,29.27
2023-08-24T04:55:44.382Z,29.28
2023-08-24T04:58:11.999Z,29.27
2023-08-24T05:00:39.935Z,29.28
2023-08-24T05:03:07.570Z,29.30
2023-08-24T05:05:35.396Z,29.30
2023-08-24T05:08:04.432Z,29.30
2023-08-24T05:10:32.104Z,29.31
2023-08-24T05:12:59.755Z,29.33
2023-08-24T05:15:27.557Z,29.33
2023-08-24T05:17:57.322Z,29.33
2023-08-24T05:20:25.077Z,29.33
2023-08-24T05:22:52.862Z,29.33
2023-08-24T05:25:20.481Z,29.35
2023-08-24T05:27:48.159Z,29.34
2023-08-24T05:30:16.131Z,29.35
2023-08-24T05:32:43.685Z,29.34
2023-08-24T05:35:11.567Z,29.35
2023-08-24T05:37:39.282Z,29.36
2023-08-24T05:40:07.209Z,29.35
2023-08-24T05:42:34.703Z,29.36
2023-08-24T05:45:02.487Z,29.36
2023-08-24T05:47:31.145Z,29.38
2023-08-24T05:49:58.694Z,29.37
2023-08-24T05:52:26.431Z,29.36
2023-08-24T05:54:53.929Z,29.38
2023-08-24T05:57:21.409Z,29.38
2023-08-24T05:59:49.141Z,29.38
2023-08-24T06:02:16.645Z,29.38
2023-08-24T06:04:44.427Z,29.38
2023-08-24T06:07:14.672Z,29.39
2023-08-24T06:09:42.103Z,29.39
2023-08-24T06:12:09.858Z,29.39
2023-08-24T06:14:37.328Z,29.40
2023-08-24T06:17:04.784Z,29.40
2023-08-24T06:19:32.506Z,29.40
2023-08-24T06:21:59.941Z,29.41
2023-08-24T06:24:27.431Z,29.41
2023-08-24T06:26:58.618Z,29.41
2023-08-24T06:29:26.156Z,29.41
2023-08-24T06:31:53.661Z,29.41
2023-08-24T06:34:21.452Z,29.42
2023-08-24T06:36:49.069Z,29.42
2023-08-24T06:39:16.516Z,29.42
2023-08-24T06:41:44.276Z,29.43
2023-08-24T06:44:11.791Z,29.44
2023-08-24T06:46:39.289Z,29.44
2023-08-24T06:49:07.049Z,29.44
2023-08-24T06:51:34.538Z,29.44
2023-08-24T06:54:02.188Z,29.45
2023-08-24T06:56:29.939Z,29.45
2023-08-24T06:58:57.405Z,29.46
2023-08-24T07:01:26.821Z,29.44
2023-08-24T07:03:54.634Z,29.45
2023-08-24T07:06:22.056Z,29.56
2023-08-24T07:08:50.810Z,29.48
2023-08-24T07:11:18.631Z,29.46
2023-08-24T07:13:46.982Z,29.47
2023-08-24T07:16:14.803Z,29.46
2023-08-24T07:18:42.642Z,29.46
2023-08-24T07:21:10.152Z,29.46
2023-08-24T07:23:37.619Z,29.47
2023-08-24T07:26:06.377Z,29.47
2023-08-24T07:28:33.826Z,29.46
2023-08-24T07:31:08.736Z,29.46
2023-08-24T07:33:36.519Z,29.49
2023-08-24T07:36:05.452Z,29.49
2023-08-24T07:38:33.003Z,29.48
2023-08-24T07:41:01.034Z,29.49
2023-08-24T07:43:28.553Z,29.50
2023-08-24T07:45:56.279Z,29.51
2023-08-24T07:48:24.030Z,29.51
2023-08-24T07:50:51.533Z,29.52
2023-08-24T07:53:19.045Z,29.52
2023-08-24T07:55:47.132Z,29.52
2023-08-24T07:58:14.615Z,29.53
2023-08-24T08:00:42.215Z,29.53
2023-08-24T08:03:10.044Z,29.53
2023-08-24T08:05:38.210Z,29.55
2023-08-24T08:08:06.023Z,29.54
2023-08-24T08:10:33.781Z,29.54
2023-08-24T08:13:01.273Z,29.56
2023-08-24T08:15:28.776Z,29.56
2023-08-24T08:17:56.608Z,29.56
2023-08-24T08:20:24.236Z,29.56
2023-08-24T08:22:51.921Z,29.57
2023-08-24T08:25:19.878Z,29.58
2023-08-24T08:27:47.350Z,29.58
2023-08-24T08:30:15.726Z,29.58
2023-08-24T08:32:43.581Z,29.59
2023-08-24T08:35:11.381Z,29.59
2023-08-24T08:37:39.117Z,29.60
2023-08-24T08:40:10.550Z,29.60
2023-08-24T08:42:38.157Z,29.59
2023-08-24T08:45:09.332Z,29.61
2023-08-24T08:47:37.221Z,29.61
2023-08-24T08:50:05.071Z,29.60
2023-08-24T08:52:36.157Z,29.61
2023-08-24T08:55:07.679Z,29.61
2023-08-24T08:57:35.380Z,29.63
2023-08-24T09:00:03.525Z,29.63
2023-08-24T09:02:32.524Z,29.63
2023-08-24T09:05:00.182Z,29.65
2023-08-24T09:07:28.636Z,29.65
2023-08-24T09:09:56.421Z,29.65
2023-08-24T09:12:23.929Z,29.65
2023-08-24T09:14:51.410Z,29.65
2023-08-24T09:17:23.075Z,29.66
2023-08-24T09:20:00.489Z,29.64
2023-08-24T09:22:28.282Z,29.68
2023-08-24T09:24:56.308Z,29.67
2023-08-24T09:27:23.820Z,29.67
2023-08-24T09:29:56.192Z,29.67
2023-08-24T09:32:30.208Z,29.68
2023-08-24T09:34:58.003Z,29.68
2023-08-24T09:37:25.457Z,29.68
2023-08-24T09:40:01.928Z,29.68
2023-08-24T09:42:29.876Z,29.69
2023-08-24T09:45:05.534Z,29.70
2023-08-24T09:47:33.358Z,29.71
2023-08-24T09:50:01.266Z,29.71
2023-08-24T09:52:30.983Z,29.70
2023-08-24T09:54:59.089Z,29.71
2023-08-24T09:57:26.498Z,29.71
2023-08-24T09:59:55.817Z,29.71
2023-08-24T10:02:24.789Z,29.73
2023-08-24T10:04:52.708Z,29.72
2023-08-24T10:07:21.972Z,29.73
2023-08-24T10:10:05.897Z,29.73
2023-08-24T10:12:37.084Z,29.77
2023-08-24T10:15:08.041Z,29.74
2023-08-24T10:17:36.720Z,29.74
2023-08-24T10:20:07.862Z,29.75
2023-08-24T10:22:35.645Z,29.75
2023-08-24T10:25:03.853Z,29.76
2023-08-24T10:27:31.607Z,29.76
2023-08-24T10:30:00.128Z,29.77
2023-08-24T10:32:28.145Z,29.76
2023-08-24T10:34:55.775Z,29.78
2023-08-24T10:37:28.069Z,29.77
2023-08-24T10:39:55.938Z,29.78
2023-08-24T10:42:23.395Z,29.78
2023-08-24T10:44:51.337Z,29.78
2023-08-24T10:47:22.356Z,29.79
2023-08-24T10:49:56.077Z,29.78
2023-08-24T10:52:24.778Z,29.80
2023-08-24T10:54:55.307Z,29.79
2023-08-24T10:57:28.778Z,29.79
2023-08-24T11:00:14.853Z,29.79
2023-08-24T11:02:49.858Z,29.84
2023-08-24T11:05:25.650Z,29.82
2023-08-24T11:08:01.004Z,29.82
2023-08-24T11:10:50.750Z,29.80
2023-08-24T11:13:24.060Z,29.83
2023-08-24T11:16:00.396Z,29.82
2023-08-24T11:18:29.244Z,29.82
2023-08-24T11:21:05.273Z,29.81
2023-08-24T11:23:32.748Z,29.82
2023-08-24T11:26:01.031Z,29.82
2023-08-24T11:28:29.626Z,29.82
2023-08-24T11:30:58.003Z,29.84
2023-08-24T11:33:34.982Z,29.84
2023-08-24T11:36:04.266Z,29.83
2023-08-24T11:38:42.117Z,29.83
2023-08-24T11:41:14.140Z,29.86
2023-08-24T11:43:43.392Z,29.84
2023-08-24T11:46:10.929Z,29.84
2023-08-24T11:48:40.730Z,29.86
2023-08-24T11:51:13.616Z,29.84
2023-08-24T11:53:41.582Z,29.85
2023-08-24T11:56:11.635Z,29.86
2023-08-24T11:58:40.136Z,29.86
2023-08-24T12:01:11.263Z,29.98
2023-08-24T12:03:39.186Z,29.88
2023-08-24T12:06:16.866Z,29.87
2023-08-24T12:08:54.251Z,29.86
2023-08-24T12:11:22.089Z,29.88
2023-08-24T12:13:50.929Z,29.87
2023-08-24T12:16:18.853Z,29.87
2023-08-24T12:18:57.751Z,29.87
2023-08-24T12:21:27.192Z,29.89
2023-08-24T12:24:01.635Z,29.89
2023-08-24T12:26:29.632Z,29.90
2023-08-24T12:29:00.767Z,29.89
2023-08-24T12:31:29.434Z,29.89
2023-08-24T12:34:07.405Z,29.89
2023-08-24T12:36:37.113Z,29.92
2023-08-24T12:39:05.859Z,29.92
2023-08-24T12:41:33.608Z,29.91
2023-08-24T12:44:06.081Z,29.92
2023-08-24T12:46:38.143Z,29.93
2023-08-24T12:49:05.836Z,29.92
2023-08-24T12:51:34.515Z,29.93
2023-08-24T12:54:02.234Z,29.92
2023-08-24T12:56:29.714Z,29.93
2023-08-24T12:58:57.174Z,29.93
2023-08-24T13:01:24.976Z,29.93
2023-08-24T13:03:52.451Z,29.95
2023-08-24T13:08:50.636Z,29.94
2023-08-24T13:11:18.150Z,29.95
2023-08-24T13:13:47.197Z,29.96
2023-08-24T13:16:15.766Z,29.96
2023-08-24T13:18:43.653Z,29.98
2023-08-24T13:21:11.146Z,29.97
2023-08-24T13:23:38.943Z,29.98
2023-08-24T13:26:06.415Z,29.98
2023-08-24T13:28:33.876Z,29.98
2023-08-24T13:31:01.651Z,29.99
2023-08-24T13:33:29.233Z,29.98
2023-08-24T13:35:56.672Z,29.98
2023-08-24T13:38:24.420Z,29.99
2023-08-24T13:40:51.915Z,30.01
2023-08-24T13:43:21.042Z,29.99
2023-08-24T13:45:48.866Z,30.01
2023-08-24T13:48:17.201Z,30.01
2023-08-24T13:50:53.647Z,30.01
2023-08-24T13:53:21.385Z,30.01
2023-08-24T13:55:48.964Z,30.02
2023-08-24T13:58:16.443Z,30.02
2023-08-24T14:00:45.590Z,30.02
2023-08-24T14:03:13.398Z,30.02
2023-08-24T14:05:41.289Z,30.03
2023-08-24T14:08:09.313Z,30.02
2023-08-24T14:10:37.256Z,30.04
2023-08-24T14:13:04.794Z,30.03
2023-08-24T14:15:32.240Z,30.04
2023-08-24T14:18:00.136Z,30.04
2023-08-24T14:20:29.320Z,30.05
2023-08-24T14:22:56.757Z,30.05
2023-08-24T14:25:24.460Z,30.05
2023-08-24T14:28:03.902Z,30.05
2023-08-24T14:30:32.952Z,30.06
2023-08-24T14:33:00.496Z,30.06
2023-08-24T14:35:28.532Z,30.06
2023-08-24T14:37:57.446Z,30.07
2023-08-24T14:40:25.229Z,30.09
2023-08-24T14:42:52.688Z,30.09
2023-08-24T14:45:20.614Z,30.09
2023-08-24T14:47:48.229Z,30.09
2023-08-24T14:50:15.873Z,30.10
2023-08-24T14:52:44.258Z,30.10
2023-08-24T14:55:11.685Z,30.11
2023-08-24T14:57:39.159Z,30.10
2023-08-24T15:00:10.833Z,30.11
2023-08-24T15:02:38.492Z,30.11
2023-08-24T15:05:06.257Z,30.11
2023-08-24T15:07:34.046Z,30.11
2023-08-24T15:10:04.778Z,30.13
2023-08-24T15:12:32.267Z,30.12
2023-08-24T15:15:03.512Z,30.12
2023-08-24T15:17:32.587Z,30.13
2023-08-24T15:20:00.403Z,30.14
2023-08-24T15:22:36.751Z,30.14
2023-08-24T15:25:04.912Z,30.16
2023-08-24T15:27:35.262Z,30.15
2023-08-24T15:30:06.497Z,30.17
2023-08-24T15:32:34.743Z,30.17
2023-08-24T15:35:06.769Z,30.17
2023-08-24T15:37:34.507Z,30.18
2023-08-24T15:40:02.122Z,30.19
2023-08-24T15:42:31.137Z,30.17
2023-08-24T15:44:58.857Z,30.19
2023-08-24T15:47:26.419Z,30.18
2023-08-24T15:49:53.961Z,30.18
2023-08-24T15:52:21.719Z,30.19
2023-08-24T15:54:49.624Z,30.19
2023-08-24T15:57:17.858Z,30.18
2023-08-24T15:59:45.644Z,30.21
2023-08-24T16:02:13.168Z,30.22
2023-08-24T16:04:40.918Z,30.22
2023-08-24T16:07:08.505Z,30.23
2023-08-24T16:09:39.399Z,30.24
2023-08-24T16:12:07.631Z,30.26
2023-08-24T16:14:35.164Z,30.27
2023-08-24T16:17:02.806Z,30.28
2023-08-24T16:19:30.621Z,30.28
2023-08-24T16:22:01.647Z,30.26
2023-08-24T16:24:29.124Z,30.27
2023-08-24T16:26:56.929Z,30.28
2023-08-24T16:29:24.395Z,30.27
2023-08-24T16:31:51.902Z,30.27
2023-08-24T16:34:19.697Z,30.30
2023-08-24T16:36:47.142Z,30.32
2023-08-24T16:39:17.039Z,30.31
2023-08-24T16:41:44.851Z,30.30
2023-08-24T16:44:13.081Z,30.29
2023-08-24T16:46:40.619Z,30.30
2023-08-24T16:49:08.436Z,30.30
2023-08-24T16:51:35.938Z,30.29
2023-08-24T16:54:03.737Z,30.30
2023-08-24T16:56:31.485Z,30.30
2023-08-24T16:59:00.982Z,30.30
2023-08-24T17:01:28.701Z,30.41
2023-08-24T17:03:59.599Z,30.32
2023-08-24T17:06:31.403Z,30.29
2023-08-24T17:09:05.459Z,30.29
2023-08-24T17:11:33.683Z,30.29
2023-08-24T17:14:01.385Z,30.40
2023-08-24T17:16:32.191Z,30.32
2023-08-24T17:19:03.300Z,30.30
2023-08-24T17:21:38.410Z,30.31
2023-08-24T17:24:08.335Z,30.31
2023-08-24T17:26:39.792Z,30.29
2023-08-24T17:29:08.590Z,30.31
2023-08-24T17:31:39.331Z,30.32
2023-08-24T17:34:08.239Z,30.31
2023-08-24T17:36:41.713Z,30.31
2023-08-24T17:39:09.671Z,30.31
2023-08-24T17:41:38.136Z,30.31
2023-08-24T17:44:08.763Z,30.31
2023-08-24T17:46:36.783Z,30.31
2023-08-24T17:49:05.987Z,30.32
2023-08-24T17:51:44.012Z,30.30
2023-08-24T17:54:15.175Z,30.31
2023-08-24T17:56:45.720Z,30.32
2023-08-24T17:59:14.586Z,30.31
2023-08-24T18:01:42.923Z,30.33
2023-08-24T18:04:11.542Z,30.32
2023-08-24T18:06:39.389Z,30.32
2023-08-24T18:09:08.258Z,30.31
2023-08-24T18:11:38.908Z,30.32
2023-08-24T18:14:12.100Z,30.33
2023-08-24T18:16:41.218Z,30.32
2023-08-24T18:19:09.490Z,30.33
2023-08-24T18:21:38.561Z,30.31
2023-08-24T18:24:09.650Z,30.32
2023-08-24T18:26:38.891Z,30.33
2023-08-24T18:29:07.565Z,30.32
2023-08-24T18:31:39.578Z,30.43
2023-08-24T18:34:08.172Z,30.34
2023-08-24T18:36:39.768Z,30.33
2023-08-24T18:39:09.341Z,30.31
2023-08-24T18:42:01.111Z,30.31
2023-08-24T18:44:32.690Z,30.30
2023-08-24T18:47:06.362Z,30.30
2023-08-24T18:49:35.835Z,30.30
2023-08-24T18:52:09.620Z,30.29
2023-08-24T18:54:38.397Z,30.29
2023-08-24T18:57:06.242Z,30.30
2023-08-24T18:59:34.428Z,30.29
2023-08-24T19:02:04.350Z,30.29
2023-08-24T19:04:32.899Z,30.41
2023-08-24T19:07:00.732Z,30.32
2023-08-24T19:09:30.216Z,30.30
2023-08-24T19:12:00.701Z,30.29
2023-08-24T19:14:33.713Z,30.28
2023-08-24T19:17:05.677Z,30.28
2023-08-24T19:19:33.472Z,30.27
2023-08-24T19:22:04.393Z,30.28
2023-08-24T19:24:32.544Z,30.27
2023-08-24T19:27:01.208Z,30.27
2023-08-24T19:29:31.153Z,30.27
2023-08-24T19:32:02.497Z,30.28
2023-08-24T19:34:31.578Z,30.28
2023-08-24T19:37:00.770Z,30.29
2023-08-24T19:39:31.414Z,30.29
2023-08-24T19:42:03.267Z,30.27
2023-08-24T19:44:32.271Z,30.27
2023-08-24T19:47:01.228Z,30.27
2023-08-24T19:49:29.623Z,30.26
2023-08-24T19:51:58.409Z,30.26
2023-08-24T19:54:27.941Z,30.24
2023-08-24T19:57:12.154Z,30.36
2023-08-24T19:59:43.654Z,30.26
2023-08-24T20:02:11.982Z,30.22
2023-08-24T20:04:41.165Z,30.21
2023-08-24T20:07:09.665Z,30.20
2023-08-24T20:09:40.976Z,30.20
2023-08-24T20:12:09.395Z,30.20
2023-08-24T20:14:38.334Z,30.20
2023-08-24T20:17:06.807Z,30.19
2023-08-24T20:19:35.776Z,30.19
2023-08-24T20:22:05.362Z,30.19
2023-08-24T20:24:35.634Z,30.19
2023-08-24T20:27:05.224Z,30.18
2023-08-24T20:29:33.530Z,30.18
2023-08-24T20:32:01.343Z,30.30
2023-08-24T20:34:29.697Z,30.21
2023-08-24T20:36:57.406Z,30.16
2023-08-24T20:39:25.628Z,30.15
2023-08-24T20:41:57.506Z,30.14
2023-08-24T20:44:25.588Z,30.13
2023-08-24T20:46:53.951Z,30.13
2023-08-24T20:49:22.021Z,30.13
2023-08-24T20:51:49.845Z,30.11
2023-08-24T20:54:17.751Z,30.09
2023-08-24T20:56:45.364Z,30.07
2023-08-24T20:59:13.460Z,30.06
2023-08-24T21:01:41.247Z,30.06
2023-08-24T21:04:09.310Z,30.01
2023-08-24T21:06:36.858Z,29.98
2023-08-24T21:09:04.944Z,29.96
2023-08-24T21:11:32.612Z,29.94
2023-08-24T21:14:01.275Z,29.92
2023-08-24T21:16:29.364Z,29.90
2023-08-24T21:18:56.944Z,29.90
2023-08-24T21:21:24.461Z,29.87
2023-08-24T21:23:53.746Z,29.86
2023-08-24T21:26:21.766Z,29.83
2023-08-24T21:28:49.616Z,29.83
2023-08-24T21:31:17.395Z,29.80
2023-08-24T21:33:44.961Z,29.80
2023-08-24T21:36:14.416Z,29.77
2023-08-24T21:38:42.350Z,29.77
2023-08-24T21:41:10.085Z,29.86
2023-08-24T21:43:38.188Z,29.77
2023-08-24T21:46:05.999Z,29.72
2023-08-24T21:48:34.330Z,29.71
2023-08-24T21:51:01.884Z,29.69
2023-08-24T21:53:30.248Z,29.69
2023-08-24T21:55:57.726Z,29.67
2023-08-24T21:58:25.309Z,29.66
2023-08-24T22:01:03.560Z,29.64
2023-08-24T22:03:34.906Z,29.65
2023-08-24T22:06:03.270Z,29.59
2023-08-24T22:08:31.176Z,29.58
2023-08-24T22:10:58.780Z,29.56
2023-08-24T22:13:26.555Z,29.55
2023-08-24T22:15:54.404Z,29.54
2023-08-24T22:18:22.240Z,29.51
2023-08-24T22:20:49.908Z,29.50
2023-08-24T22:23:17.956Z,29.46
2023-08-24T22:25:45.447Z,29.44
2023-08-24T22:28:13.045Z,29.43
2023-08-24T22:30:41.873Z,29.42
2023-08-24T22:33:09.385Z,29.41
2023-08-24T22:35:36.900Z,29.41
2023-08-24T22:38:04.740Z,29.40
2023-08-24T22:40:32.315Z,29.40
2023-08-24T22:42:59.843Z,29.38
2023-08-24T22:45:40.638Z,29.38
2023-08-24T22:48:12.025Z,29.39
2023-08-24T22:50:39.948Z,29.37
2023-08-24T22:53:07.730Z,29.35
2023-08-24T22:55:37.372Z,29.35
2023-08-24T22:58:05.209Z,29.35
2023-08-24T23:00:32.675Z,29.33
2023-08-24T23:03:00.286Z,29.32
2023-08-24T23:05:28.101Z,29.31
2023-08-24T23:07:55.876Z,29.29
2023-08-24T23:10:24.680Z,29.29
2023-08-24T23:12:52.894Z,29.28
2023-08-24T23:15:20.609Z,29.28
2023-08-24T23:17:48.197Z,29.27
2023-08-24T23:20:17.345Z,29.24
2023-08-24T23:22:44.847Z,29.24
2023-08-24T23:25:12.420Z,29.24
2023-08-24T23:27:40.182Z,29.23
2023-08-24T23:30:09.392Z,29.21
2023-08-24T23:32:36.994Z,29.19
2023-08-24T23:35:05.287Z,29.18
2023-08-24T23:37:32.763Z,29.16
2023-08-24T23:40:00.322Z,29.17
2023-08-24T23:42:28.806Z,29.16
2023-08-24T23:44:56.287Z,29.14
2023-08-24T23:47:23.747Z,29.14
2023-08-24T23:49:51.521Z,29.13
2023-08-24T23:52:18.991Z,29.14
2023-08-24T23:54:46.442Z,29.13
2023-08-24T23:57:14.150Z,29.10
2023-08-24T23:59:41.589Z,29.10
